createdAt,value
2019-03-25T00:01:33.888Z,12.49
2019-03-25T00:03:59.923Z,12.38
2019-03-25T00:06:25.785Z,12.28
2019-03-25T00:09:04.510Z,12.34
2019-03-25T00:11:19.569Z,12.31
2019-03-25T00:13:45.483Z,12.31
2019-03-25T00:16:11.519Z,12.35
2019-03-25T00:18:37.512Z,12.30
2019-03-25T00:21:03.559Z,12.18
2019-03-25T00:23:29.893Z,12.16
2019-03-25T00:25:56.020Z,12.08
2019-03-25T00:28:21.951Z,12.00
2019-03-25T00:30:47.897Z,12.03
2019-03-25T00:33:13.892Z,12.18
2019-03-25T00:35:39.784Z,12.21
2019-03-25T00:38:05.653Z,12.24
2019-03-25T00:40:31.573Z,12.10
2019-03-25T00:42:57.387Z,12.12
2019-03-25T00:45:23.216Z,12.01
2019-03-25T00:47:49.097Z,11.86
2019-03-25T00:50:15.033Z,11.78
2019-03-25T00:52:40.896Z,11.73
2019-03-25T00:55:06.769Z,11.62
2019-03-25T00:57:32.596Z,11.67
2019-03-25T00:59:58.544Z,11.44
2019-03-25T01:02:28.385Z,11.41
2019-03-25T01:04:54.249Z,11.45
2019-03-25T01:07:20.168Z,11.33
2019-03-25T01:09:46.063Z,11.45
2019-03-25T01:12:11.928Z,11.43
2019-03-25T01:14:37.753Z,11.41
2019-03-25T01:17:03.896Z,11.34
2019-03-25T01:19:29.842Z,11.32
2019-03-25T01:21:55.801Z,11.25
2019-03-25T01:24:21.744Z,11.26
2019-03-25T01:26:47.760Z,11.34
2019-03-25T01:29:13.750Z,11.35
2019-03-25T01:31:39.586Z,11.41
2019-03-25T01:34:05.490Z,11.43
2019-03-25T01:36:31.358Z,11.42
2019-03-25T01:38:57.185Z,11.38
2019-03-25T01:41:23.081Z,11.25
2019-03-25T01:43:48.932Z,11.25
2019-03-25T01:46:14.847Z,11.01
2019-03-25T01:48:40.858Z,10.96
2019-03-25T01:51:06.666Z,10.89
2019-03-25T01:53:32.506Z,10.92
2019-03-25T01:55:58.447Z,10.88
2019-03-25T01:58:24.384Z,10.92
2019-03-25T02:00:50.230Z,11.01
2019-03-25T02:03:16.114Z,11.06
2019-03-25T02:05:41.935Z,11.04
2019-03-25T02:08:07.897Z,11.12
2019-03-25T02:10:33.852Z,11.05
2019-03-25T02:12:59.780Z,11.03
2019-03-25T02:15:25.605Z,10.93
2019-03-25T02:17:51.472Z,10.88
2019-03-25T02:20:25.819Z,10.82
2019-03-25T02:22:45.513Z,10.82
2019-03-25T02:25:11.327Z,10.81
2019-03-25T02:27:37.307Z,10.83
2019-03-25T02:30:05.438Z,10.85
2019-03-25T02:32:31.322Z,10.88
2019-03-25T02:34:57.195Z,10.86
2019-03-25T02:37:23.095Z,10.88
2019-03-25T02:39:48.998Z,10.87
2019-03-25T02:42:14.820Z,10.89
2019-03-25T02:44:40.766Z,10.97
2019-03-25T02:47:06.756Z,11.12
2019-03-25T02:49:32.699Z,11.05
2019-03-25T02:51:58.596Z,10.84
2019-03-25T02:54:24.437Z,10.80
2019-03-25T02:56:50.293Z,10.87
2019-03-25T02:59:16.379Z,10.79
2019-03-25T03:01:42.214Z,10.68
2019-03-25T03:04:08.049Z,10.62
2019-03-25T03:06:33.914Z,10.69
2019-03-25T03:08:59.739Z,10.73
2019-03-25T03:11:25.598Z,10.78
2019-03-25T03:13:51.573Z,10.89
2019-03-25T03:16:17.390Z,11.00
2019-03-25T03:18:43.239Z,11.12
2019-03-25T03:21:09.235Z,10.94
2019-03-25T03:23:35.068Z,10.65
2019-03-25T03:26:00.900Z,10.50
2019-03-25T03:28:26.852Z,10.39
2019-03-25T03:30:52.777Z,10.26
2019-03-25T03:33:18.712Z,10.21
2019-03-25T03:35:46.549Z,10.22
2019-03-25T03:38:12.235Z,10.24
2019-03-25T03:40:38.136Z,10.29
2019-03-25T03:43:04.196Z,10.42
2019-03-25T03:45:30.052Z,10.59
2019-03-25T03:47:56.129Z,10.62
2019-03-25T03:50:23.860Z,10.56
2019-03-25T03:52:49.810Z,10.58
2019-03-25T03:55:15.778Z,10.55
2019-03-25T03:57:41.623Z,10.28
2019-03-25T04:00:11.266Z,10.15
2019-03-25T04:02:37.191Z,9.87
2019-03-25T04:05:03.437Z,9.97
2019-03-25T04:07:29.256Z,9.97
2019-03-25T04:09:55.149Z,10.06
2019-03-25T04:12:21.194Z,10.07
2019-03-25T04:14:47.129Z,10.07
2019-03-25T04:17:13.130Z,10.06
2019-03-25T04:19:38.972Z,10.17
2019-03-25T04:22:04.910Z,10.14
2019-03-25T04:24:30.895Z,10.13
2019-03-25T04:26:56.719Z,10.10
2019-03-25T04:29:22.653Z,10.12
2019-03-25T04:31:48.856Z,10.09
2019-03-25T04:34:14.679Z,10.11
2019-03-25T04:36:40.649Z,10.07
2019-03-25T04:39:07.067Z,10.07
2019-03-25T04:41:32.982Z,10.00
2019-03-25T04:43:58.809Z,10.07
2019-03-25T04:46:24.827Z,10.04
2019-03-25T04:48:50.727Z,10.06
2019-03-25T04:51:16.666Z,10.23
2019-03-25T04:53:42.499Z,10.13
2019-03-25T04:56:08.489Z,9.98
2019-03-25T04:58:34.333Z,9.92
2019-03-25T05:01:00.160Z,9.90
2019-03-25T05:03:26.024Z,9.86
2019-03-25T05:05:51.955Z,9.95
2019-03-25T05:08:17.803Z,9.94
2019-03-25T05:10:43.748Z,9.77
2019-03-25T05:13:09.698Z,9.82
2019-03-25T05:15:35.539Z,9.81
2019-03-25T05:18:01.476Z,9.83
2019-03-25T05:20:27.571Z,9.80
2019-03-25T05:22:53.371Z,9.82
2019-03-25T05:25:19.334Z,9.82
2019-03-25T05:27:45.423Z,9.79
2019-03-25T05:30:11.552Z,9.77
2019-03-25T05:32:37.384Z,9.72
2019-03-25T05:35:05.373Z,9.71
2019-03-25T05:37:31.197Z,9.72
2019-03-25T05:39:57.185Z,9.75
2019-03-25T05:42:23.044Z,9.82
2019-03-25T05:44:49.001Z,9.97
2019-03-25T05:47:14.918Z,10.03
2019-03-25T05:49:40.850Z,10.02
2019-03-25T05:52:06.673Z,10.14
2019-03-25T05:54:32.568Z,10.18
2019-03-25T05:57:02.655Z,10.11
2019-03-25T05:59:26.197Z,10.13
2019-03-25T06:01:52.052Z,10.05
2019-03-25T06:04:17.961Z,9.98
2019-03-25T06:06:43.794Z,10.11
2019-03-25T06:09:09.746Z,10.26
2019-03-25T06:11:35.755Z,10.34
2019-03-25T06:14:01.700Z,10.46
2019-03-25T06:16:27.646Z,10.35
2019-03-25T06:18:53.719Z,10.49
2019-03-25T06:21:19.548Z,10.58
2019-03-25T06:23:45.395Z,10.71
2019-03-25T06:26:11.296Z,10.63
2019-03-25T06:28:37.117Z,10.81
2019-03-25T06:31:03.175Z,10.78
2019-03-25T06:33:29.055Z,10.68
2019-03-25T06:35:54.884Z,10.70
2019-03-25T06:38:20.715Z,10.65
2019-03-25T06:40:49.126Z,10.72
2019-03-25T06:43:14.445Z,10.85
2019-03-25T06:45:40.282Z,11.15
2019-03-25T06:48:06.165Z,11.15
2019-03-25T06:50:32.006Z,11.26
2019-03-25T06:52:57.872Z,11.49
2019-03-25T06:55:23.805Z,11.45
2019-03-25T06:57:49.846Z,11.57
2019-03-25T07:00:16.477Z,11.70
2019-03-25T07:02:42.407Z,11.64
2019-03-25T07:05:09.639Z,11.78
2019-03-25T07:07:35.636Z,11.78
2019-03-25T07:10:01.643Z,11.85
2019-03-25T07:12:27.774Z,12.00
2019-03-25T07:14:53.652Z,11.97
2019-03-25T07:17:19.711Z,12.17
2019-03-25T07:19:45.578Z,12.34
2019-03-25T07:22:11.390Z,12.47
2019-03-25T07:24:37.275Z,12.57
2019-03-25T07:27:03.352Z,12.60
2019-03-25T07:29:29.196Z,12.67
2019-03-25T07:31:55.060Z,12.77
2019-03-25T07:34:21.039Z,12.92
2019-03-25T07:36:46.897Z,13.08
2019-03-25T07:39:12.828Z,13.27
2019-03-25T07:41:38.756Z,13.31
2019-03-25T07:44:04.952Z,13.54
2019-03-25T07:46:30.867Z,13.77
2019-03-25T07:48:56.720Z,14.03
2019-03-25T07:51:22.723Z,14.25
2019-03-25T07:53:50.961Z,14.42
2019-03-25T07:56:16.393Z,15.21
2019-03-25T07:58:42.353Z,15.02
2019-03-25T08:01:08.330Z,15.11
2019-03-25T08:03:34.164Z,15.06
2019-03-25T08:06:00.225Z,15.16
2019-03-25T08:08:26.138Z,15.29
2019-03-25T08:10:52.075Z,15.32
2019-03-25T08:13:18.014Z,15.39
2019-03-25T08:15:44.066Z,15.47
2019-03-25T08:18:09.930Z,15.39
2019-03-25T08:20:35.887Z,15.45
2019-03-25T08:23:01.813Z,15.42
2019-03-25T08:25:27.690Z,15.63
2019-03-25T08:27:59.859Z,15.66
2019-03-25T08:30:21.445Z,15.86
2019-03-25T08:32:47.390Z,16.04
2019-03-25T08:35:13.408Z,15.91
2019-03-25T08:37:39.238Z,16.06
2019-03-25T08:40:05.842Z,15.91
2019-03-25T08:42:31.647Z,16.17
2019-03-25T08:44:57.596Z,16.26
2019-03-25T08:47:23.516Z,16.30
2019-03-25T08:49:49.386Z,16.33
2019-03-25T08:52:15.264Z,16.47
2019-03-25T08:54:41.083Z,16.51
2019-03-25T08:57:06.958Z,16.44
2019-03-25T08:59:32.805Z,16.43
2019-03-25T09:01:58.717Z,16.34
2019-03-25T09:04:24.641Z,16.57
2019-03-25T09:06:50.468Z,16.50
2019-03-25T09:09:16.390Z,16.29
2019-03-25T09:11:42.384Z,16.27
2019-03-25T09:14:08.338Z,16.80
2019-03-25T09:16:34.161Z,16.76
2019-03-25T09:18:59.994Z,16.76
2019-03-25T09:21:25.821Z,16.66
2019-03-25T09:23:51.916Z,16.69
2019-03-25T09:26:17.767Z,16.70
2019-03-25T09:28:43.599Z,16.82
2019-03-25T09:31:11.742Z,16.52
2019-03-25T09:33:37.955Z,17.03
2019-03-25T09:36:04.177Z,16.87
2019-03-25T09:38:30.078Z,16.80
2019-03-25T09:40:55.910Z,16.59
2019-03-25T09:43:21.762Z,16.92
2019-03-25T09:45:47.852Z,17.01
2019-03-25T09:48:13.786Z,17.18
2019-03-25T09:50:43.248Z,17.47
2019-03-25T09:53:09.488Z,17.69
2019-03-25T09:55:35.370Z,16.83
2019-03-25T09:58:01.326Z,17.19
2019-03-25T10:00:31.314Z,17.32
2019-03-25T10:02:57.553Z,17.09
2019-03-25T10:05:23.396Z,17.13
2019-03-25T10:07:49.239Z,17.31
2019-03-25T10:10:15.305Z,17.24
2019-03-25T10:12:41.226Z,17.39
2019-03-25T10:15:08.368Z,17.53
2019-03-25T10:17:34.225Z,17.60
2019-03-25T10:20:00.432Z,17.77
2019-03-25T10:22:26.286Z,17.57
2019-03-25T10:24:52.173Z,17.83
2019-03-25T10:27:18.117Z,17.54
2019-03-25T10:29:44.070Z,17.77
2019-03-25T10:32:10.232Z,18.12
2019-03-25T10:34:36.271Z,17.46
2019-03-25T10:37:02.228Z,18.07
2019-03-25T10:39:28.036Z,18.31
2019-03-25T10:41:53.881Z,17.65
2019-03-25T10:44:19.863Z,17.86
2019-03-25T10:46:45.798Z,17.95
2019-03-25T10:49:11.676Z,17.46
2019-03-25T10:51:37.603Z,17.83
2019-03-25T10:54:03.543Z,17.69
2019-03-25T10:56:29.386Z,18.12
2019-03-25T10:58:58.284Z,18.11
2019-03-25T11:01:23.199Z,18.52
2019-03-25T11:03:49.117Z,18.36
2019-03-25T11:06:14.964Z,18.70
2019-03-25T11:08:41.001Z,18.22
2019-03-25T11:11:06.912Z,18.69
2019-03-25T11:13:32.957Z,18.73
2019-03-25T11:15:58.871Z,18.63
2019-03-25T11:18:24.879Z,18.90
2019-03-25T11:20:50.776Z,18.93
2019-03-25T11:23:16.601Z,18.89
2019-03-25T11:25:42.489Z,18.60
2019-03-25T11:28:08.429Z,18.62
2019-03-25T11:30:49.693Z,19.01
2019-03-25T11:33:15.530Z,18.92
2019-03-25T11:35:41.366Z,19.01
2019-03-25T11:38:07.319Z,19.02
2019-03-25T11:40:33.233Z,18.77
2019-03-25T11:42:59.404Z,18.66
2019-03-25T11:45:25.430Z,19.04
2019-03-25T11:47:51.300Z,18.65
2019-03-25T11:50:17.385Z,19.00
2019-03-25T11:52:43.396Z,19.00
2019-03-25T11:55:09.499Z,19.42
2019-03-25T11:57:35.535Z,18.94
2019-03-25T12:00:01.695Z,19.57
2019-03-25T12:02:27.624Z,19.57
2019-03-25T12:04:53.579Z,19.73
2019-03-25T12:07:19.502Z,19.68
2019-03-25T12:09:45.570Z,19.70
2019-03-25T12:12:11.479Z,19.87
2019-03-25T12:14:37.374Z,20.14
2019-03-25T12:17:03.403Z,20.41
2019-03-25T12:19:29.268Z,20.37
2019-03-25T12:21:55.270Z,20.57
2019-03-25T12:24:21.200Z,20.59
2019-03-25T12:26:47.097Z,20.49
2019-03-25T12:29:12.913Z,21.18
2019-03-25T12:31:38.996Z,20.87
2019-03-25T12:34:05.066Z,20.98
2019-03-25T12:36:31.116Z,22.22
2019-03-25T12:38:56.953Z,22.34
2019-03-25T12:41:22.940Z,21.74
2019-03-25T12:43:48.875Z,22.37
2019-03-25T12:46:14.730Z,21.63
2019-03-25T12:48:40.707Z,21.45
2019-03-25T12:51:06.758Z,21.68
2019-03-25T12:53:32.700Z,22.80
2019-03-25T12:55:58.754Z,22.17
2019-03-25T12:58:24.593Z,24.09
2019-03-25T13:00:50.561Z,25.32
2019-03-25T13:03:16.530Z,23.34
2019-03-25T13:05:42.546Z,22.68
2019-03-25T13:08:08.478Z,26.35
2019-03-25T13:10:34.548Z,29.23
2019-03-25T13:13:00.461Z,29.31
2019-03-25T13:15:26.397Z,29.10
2019-03-25T13:17:52.273Z,26.87
2019-03-25T13:20:18.212Z,27.89
2019-03-25T13:22:44.063Z,27.76
2019-03-25T13:25:09.982Z,30.92
2019-03-25T13:27:35.947Z,29.37
2019-03-25T13:30:04.270Z,26.58
2019-03-25T13:32:30.162Z,27.77
2019-03-25T13:34:56.016Z,29.21
2019-03-25T13:37:21.844Z,27.72
2019-03-25T13:39:47.859Z,26.34
2019-03-25T13:42:13.703Z,26.33
2019-03-25T13:44:40.249Z,30.61
2019-03-25T13:47:06.128Z,33.79
2019-03-25T13:49:31.950Z,28.18
2019-03-25T13:51:57.784Z,27.30
2019-03-25T13:54:23.792Z,26.95
2019-03-25T13:56:49.750Z,29.61
2019-03-25T13:59:15.615Z,31.48
2019-03-25T14:01:41.555Z,29.46
2019-03-25T14:04:07.500Z,30.70
2019-03-25T14:06:33.461Z,28.99
2019-03-25T14:08:59.305Z,26.56
2019-03-25T14:11:25.419Z,27.73
2019-03-25T14:13:51.281Z,29.48
2019-03-25T14:16:17.171Z,29.76
2019-03-25T14:18:43.046Z,29.62
2019-03-25T14:21:09.114Z,30.21
2019-03-25T14:23:34.946Z,32.83
2019-03-25T14:26:01.198Z,27.45
2019-03-25T14:28:27.158Z,28.40
2019-03-25T14:30:53.057Z,30.66
2019-03-25T14:33:18.915Z,32.49
2019-03-25T14:35:44.823Z,32.49
2019-03-25T14:38:10.786Z,33.18
2019-03-25T14:40:36.855Z,31.88
2019-03-25T14:43:03.270Z,28.68
2019-03-25T14:45:29.256Z,31.38
2019-03-25T14:47:55.337Z,31.78
2019-03-25T14:50:21.324Z,27.80
2019-03-25T14:52:47.291Z,28.01
2019-03-25T14:55:17.223Z,29.58
2019-03-25T14:57:43.112Z,28.63
2019-03-25T15:00:10.374Z,27.41
2019-03-25T15:02:36.283Z,29.75
2019-03-25T15:05:04.484Z,32.68
2019-03-25T15:07:30.449Z,29.02
2019-03-25T15:09:56.433Z,29.56
2019-03-25T15:12:22.331Z,30.82
2019-03-25T15:14:48.263Z,28.25
2019-03-25T15:17:14.263Z,30.81
2019-03-25T15:19:40.137Z,28.35
2019-03-25T15:22:06.070Z,28.43
2019-03-25T15:24:32.105Z,31.07
2019-03-25T15:26:58.037Z,29.77
2019-03-25T15:29:23.857Z,32.73
2019-03-25T15:31:49.749Z,31.25
2019-03-25T15:34:15.611Z,31.58
2019-03-25T15:36:41.441Z,30.06
2019-03-25T15:39:07.685Z,25.65
2019-03-25T15:41:33.524Z,26.17
2019-03-25T15:43:59.477Z,24.91
2019-03-25T15:46:25.378Z,24.18
2019-03-25T15:48:51.312Z,23.62
2019-03-25T15:51:17.143Z,23.24
2019-03-25T15:53:43.037Z,23.33
2019-03-25T15:56:12.410Z,23.37
2019-03-25T15:58:38.290Z,23.12
2019-03-25T16:01:04.238Z,22.98
2019-03-25T16:03:30.123Z,22.89
2019-03-25T16:05:56.247Z,22.47
2019-03-25T16:08:22.075Z,22.33
2019-03-25T16:10:48.011Z,22.14
2019-03-25T16:13:13.894Z,22.02
2019-03-25T16:15:41.745Z,21.91
2019-03-25T16:18:08.159Z,21.88
2019-03-25T16:20:34.221Z,21.69
2019-03-25T16:23:00.174Z,21.78
2019-03-25T16:25:26.500Z,21.73
2019-03-25T16:27:52.323Z,21.63
2019-03-25T16:30:18.273Z,21.37
2019-03-25T16:32:44.122Z,21.30
2019-03-25T16:35:11.565Z,21.54
2019-03-25T16:37:37.545Z,21.41
2019-03-25T16:40:05.574Z,21.78
2019-03-25T16:42:31.563Z,22.96
2019-03-25T16:44:57.612Z,22.48
2019-03-25T16:47:23.580Z,21.83
2019-03-25T16:49:49.381Z,22.49
2019-03-25T16:52:15.555Z,22.14
2019-03-25T16:54:41.381Z,21.75
2019-03-25T16:57:07.511Z,21.30
2019-03-25T16:59:33.482Z,21.13
2019-03-25T17:01:59.323Z,21.19
2019-03-25T17:04:25.302Z,21.26
2019-03-25T17:06:51.342Z,21.14
2019-03-25T17:09:17.167Z,21.31
2019-03-25T17:11:42.998Z,21.05
2019-03-25T17:14:09.028Z,21.07
2019-03-25T17:16:35.103Z,20.89
2019-03-25T17:19:02.125Z,20.72
2019-03-25T17:21:28.121Z,20.74
2019-03-25T17:23:53.985Z,20.65
2019-03-25T17:26:19.967Z,20.62
2019-03-25T17:28:46.918Z,20.69
2019-03-25T17:31:21.033Z,20.54
2019-03-25T17:33:40.698Z,20.46
2019-03-25T17:36:06.559Z,20.45
2019-03-25T17:38:32.553Z,20.48
2019-03-25T17:40:58.395Z,20.34
2019-03-25T17:43:24.224Z,20.17
2019-03-25T17:45:50.178Z,20.27
2019-03-25T17:48:16.021Z,20.11
2019-03-25T17:50:41.966Z,19.99
2019-03-25T17:53:07.905Z,19.82
2019-03-25T17:55:33.932Z,19.69
2019-03-25T17:57:59.958Z,19.55
2019-03-25T18:00:48.114Z,19.53
2019-03-25T18:03:15.347Z,19.55
2019-03-25T18:05:41.238Z,19.45
2019-03-25T18:08:07.095Z,19.17
2019-03-25T18:10:33.059Z,19.03
2019-03-25T18:12:59.014Z,18.90
2019-03-25T18:15:25.007Z,18.82
2019-03-25T18:17:50.940Z,18.73
2019-03-25T18:20:36.755Z,18.50
2019-03-25T18:23:02.730Z,18.60
2019-03-25T18:25:28.657Z,18.44
2019-03-25T18:27:54.544Z,18.18
2019-03-25T18:30:29.903Z,18.21
2019-03-25T18:32:55.868Z,18.08
2019-03-25T18:35:22.319Z,18.07
2019-03-25T18:37:48.167Z,17.86
2019-03-25T18:40:14.025Z,17.67
2019-03-25T18:42:40.121Z,17.65
2019-03-25T18:45:06.414Z,17.48
2019-03-25T18:47:32.480Z,17.46
2019-03-25T18:49:58.583Z,17.37
2019-03-25T18:52:24.464Z,17.28
2019-03-25T18:54:50.545Z,17.17
2019-03-25T18:57:16.516Z,17.12
2019-03-25T18:59:42.566Z,17.05
2019-03-25T19:02:08.622Z,16.99
2019-03-25T19:04:34.538Z,16.92
2019-03-25T19:07:01.263Z,16.84
2019-03-25T19:09:27.685Z,16.74
2019-03-25T19:11:53.524Z,16.68
2019-03-25T19:14:19.351Z,16.74
2019-03-25T19:16:45.379Z,16.70
2019-03-25T19:19:11.185Z,16.66
2019-03-25T19:21:37.361Z,16.68
2019-03-25T19:24:03.429Z,16.68
2019-03-25T19:26:29.281Z,16.60
2019-03-25T19:28:55.109Z,16.53
2019-03-25T19:31:21.081Z,16.41
2019-03-25T19:33:46.897Z,16.38
2019-03-25T19:36:12.913Z,16.33
2019-03-25T19:38:38.743Z,16.33
2019-03-25T19:41:04.584Z,16.21
2019-03-25T19:43:30.453Z,16.19
2019-03-25T19:45:56.276Z,16.10
2019-03-25T19:48:22.211Z,16.10
2019-03-25T19:50:48.265Z,16.01
2019-03-25T19:53:18.927Z,15.99
2019-03-25T19:55:42.199Z,15.94
2019-03-25T19:58:08.157Z,15.98
2019-03-25T20:00:37.949Z,16.01
2019-03-25T20:03:04.713Z,15.94
2019-03-25T20:05:30.706Z,15.89
2019-03-25T20:07:57.704Z,15.76
2019-03-25T20:10:34.482Z,15.71
2019-03-25T20:13:00.954Z,15.77
2019-03-25T20:15:27.256Z,15.73
2019-03-25T20:17:53.064Z,15.71
2019-03-25T20:20:18.973Z,15.72
2019-03-25T20:22:44.885Z,15.75
2019-03-25T20:25:10.931Z,15.69
2019-03-25T20:27:36.795Z,15.51
2019-03-25T20:30:06.460Z,15.48
2019-03-25T20:32:32.466Z,15.47
2019-03-25T20:34:58.373Z,15.51
2019-03-25T20:37:24.216Z,15.57
2019-03-25T20:39:50.085Z,15.54
2019-03-25T20:42:15.955Z,15.53
2019-03-25T20:44:41.777Z,15.47
2019-03-25T20:47:07.616Z,15.35
2019-03-25T20:49:33.605Z,15.31
2019-03-25T20:51:59.635Z,15.35
2019-03-25T20:54:25.610Z,15.38
2019-03-25T20:56:51.461Z,15.39
2019-03-25T20:59:18.247Z,15.33
2019-03-25T21:01:44.315Z,15.33
2019-03-25T21:04:10.238Z,15.25
2019-03-25T21:06:36.514Z,15.26
2019-03-25T21:09:04.599Z,15.16
2019-03-25T21:11:30.639Z,15.06
2019-03-25T21:13:56.922Z,15.12
2019-03-25T21:16:22.862Z,15.06
2019-03-25T21:18:48.841Z,15.09
2019-03-25T21:21:14.831Z,15.09
2019-03-25T21:23:40.706Z,14.96
2019-03-25T21:26:06.785Z,14.96
2019-03-25T21:28:32.817Z,14.96
2019-03-25T21:30:58.682Z,14.95
2019-03-25T21:33:24.537Z,14.87
2019-03-25T21:35:50.653Z,14.82
2019-03-25T21:38:16.673Z,14.81
2019-03-25T21:40:42.948Z,14.76
2019-03-25T21:43:09.104Z,14.64
2019-03-25T21:45:35.020Z,14.62
2019-03-25T21:48:00.979Z,14.61
2019-03-25T21:50:26.884Z,14.59
2019-03-25T21:52:53.097Z,14.59
2019-03-25T21:55:19.046Z,14.50
2019-03-25T21:57:45.200Z,14.53
2019-03-25T22:00:11.590Z,14.49
2019-03-25T22:02:37.426Z,14.44
2019-03-25T22:05:05.497Z,14.52
2019-03-25T22:07:31.500Z,14.31
2019-03-25T22:09:57.566Z,14.30
2019-03-25T22:12:23.578Z,14.17
2019-03-25T22:14:49.532Z,14.23
2019-03-25T22:17:15.385Z,14.31
2019-03-25T22:19:41.238Z,14.21
2019-03-25T22:22:07.213Z,14.19
2019-03-25T22:24:33.081Z,14.24
2019-03-25T22:26:58.903Z,14.19
2019-03-25T22:29:24.832Z,14.14
2019-03-25T22:31:51.053Z,14.16
2019-03-25T22:34:16.947Z,14.16
2019-03-25T22:36:42.782Z,14.04
2019-03-25T22:39:08.893Z,14.09
2019-03-25T22:41:35.145Z,14.10
2019-03-25T22:44:01.351Z,14.16
2019-03-25T22:46:27.441Z,14.06
2019-03-25T22:48:53.305Z,14.00
2019-03-25T22:51:19.147Z,13.92
2019-03-25T22:53:45.068Z,13.99
2019-03-25T22:56:11.041Z,13.94
2019-03-25T22:58:37.208Z,13.95
2019-03-25T23:01:03.715Z,13.86
2019-03-25T23:03:39.133Z,13.90
2019-03-25T23:05:57.660Z,14.00
2019-03-25T23:08:23.546Z,13.77
2019-03-25T23:10:49.729Z,13.88
2019-03-25T23:13:15.789Z,13.85
2019-03-25T23:15:41.774Z,13.80
2019-03-25T23:18:07.844Z,13.79
2019-03-25T23:20:33.683Z,13.83
2019-03-25T23:22:59.729Z,13.78
2019-03-25T23:25:25.564Z,13.87
2019-03-25T23:27:51.473Z,13.86
2019-03-25T23:30:17.593Z,13.84
2019-03-25T23:32:43.629Z,13.94
2019-03-25T23:35:09.661Z,13.88
2019-03-25T23:37:35.777Z,13.96
2019-03-25T23:40:04.234Z,13.84
2019-03-25T23:42:30.089Z,13.75
2019-03-25T23:44:56.002Z,13.77
2019-03-25T23:47:22.067Z,13.67
2019-03-25T23:49:48.010Z,13.66
2019-03-25T23:52:13.923Z,13.64
2019-03-25T23:54:39.982Z,13.60
2019-03-25T23:57:05.953Z,13.56
2019-03-25T23:59:32.013Z,13.61
